Time;durP1;ratioP1;P1;durP2;ratioP2;P2;SDS_P1;SDS_P2;PMS_P1;PMS_P2;Temp;Humidity;BMP_temperature;BMP_pressure;BME280_temperature;BME280_humidity;BME280_pressure;Samples;Min_cycle;Max_cycle;Signal;HPM_P1;HPM_P2
2021/07/02 00:02:24;;;;;;;27.67;15.63;;;;;;;;;;6215473;23;20108;-48
2021/07/02 00:04:50;;;;;;;29.02;16.83;;;;;;;;;;6215612;23;20005;-48
2021/07/02 00:07:16;;;;;;;29.92;15.27;;;;;;;;;;6215318;23;20090;-49
2021/07/02 00:09:42;;;;;;;25.15;16.63;;;;;;;;;;6214945;23;20015;-48
2021/07/02 00:12:08;;;;;;;30.95;16.95;;;;;;;;;;6215161;23;20005;-48
2021/07/02 00:14:34;;;;;;;30.20;18.98;;;;;;;;;;6215436;23;20004;-48
2021/07/02 00:17:00;;;;;;;29.08;17.33;;;;;;;;;;6215477;23;20001;-48
2021/07/02 00:19:26;;;;;;;29.30;16.38;;;;;;;;;;6214960;23;20001;-48
2021/07/02 00:21:52;;;;;;;23.48;15.07;;;;;;;;;;6215344;23;20299;-48
2021/07/02 00:24:18;;;;;;;33.60;18.23;;;;;;;;;;6214842;23;20082;-49
2021/07/02 00:26:44;;;;;;;34.38;17.08;;;;;;;;;;6215488;23;20008;-48
2021/07/02 00:29:10;;;;;;;32.70;18.55;;;;;;;;;;6214855;23;20012;-48
2021/07/02 00:31:36;;;;;;;29.90;17.23;;;;;;;;;;6215250;23;20015;-48
2021/07/02 00:34:02;;;;;;;34.38;18.42;;;;;;;;;;6215199;23;20389;-49
2021/07/02 00:36:28;;;;;;;32.45;17.55;;;;;;;;;;6215102;23;20003;-49
2021/07/02 00:38:54;;;;;;;27.83;16.90;;;;;;;;;;6214126;23;20005;-48
2021/07/02 00:41:20;;;;;;;34.28;19.77;;;;;;;;;;6215123;23;20005;-48
2021/07/02 00:43:53;;;;;;;34.22;17.58;;;;;;;;;;6215277;23;20478;-48
2021/07/02 00:46:20;;;;;;;37.72;19.45;;;;;;;;;;6215337;23;20009;-48
2021/07/02 00:48:46;;;;;;;30.40;17.88;;;;;;;;;;6214528;23;20020;-49
2021/07/02 00:51:12;;;;;;;33.58;16.98;;;;;;;;;;6214602;23;20004;-50
2021/07/02 00:53:40;;;;;;;27.02;16.73;;;;;;;;;;6214703;23;20043;-49
2021/07/02 00:56:06;;;;;;;34.95;19.52;;;;;;;;;;6215056;23;20023;-49
2021/07/02 00:58:35;;;;;;;29.52;17.95;;;;;;;;;;6214523;23;20004;-48
2021/07/02 01:01:01;;;;;;;36.97;18.75;;;;;;;;;;6215634;23;19997;-48
2021/07/02 01:03:28;;;;;;;30.42;17.20;;;;;;;;;;6214763;23;20001;-48
2021/07/02 01:05:54;;;;;;;31.77;17.27;;;;;;;;;;6214995;23;20001;-48
2021/07/02 01:08:21;;;;;;;28.00;17.33;;;;;;;;;;6214244;23;20050;-48
2021/07/02 01:10:47;;;;;;;29.20;18.48;;;;;;;;;;6214563;23;20047;-48
2021/07/02 01:13:13;;;;;;;30.17;17.67;;;;;;;;;;6214639;23;20001;-48
2021/07/02 01:15:39;;;;;;;25.35;15.35;;;;;;;;;;6214611;23;20423;-49
2021/07/02 01:18:05;;;;;;;28.58;15.88;;;;;;;;;;6214672;23;20036;-48
2021/07/02 01:20:31;;;;;;;29.23;17.33;;;;;;;;;;6187673;23;20099;-48
2021/07/02 01:22:57;;;;;;;33.38;18.58;;;;;;;;;;6214979;23;20004;-48
2021/07/02 01:25:25;;;;;;;24.23;16.30;;;;;;;;;;6214539;23;20000;-48
2021/07/02 01:27:51;;;;;;;32.63;17.70;;;;;;;;;;6214382;23;20080;-48
2021/07/02 01:30:17;;;;;;;32.75;17.90;;;;;;;;;;6214887;23;20010;-51
2021/07/02 01:32:43;;;;;;;23.75;15.73;;;;;;;;;;6214496;23;20011;-48
2021/07/02 01:35:09;;;;;;;30.05;17.25;;;;;;;;;;6214494;23;20302;-49
2021/07/02 01:37:36;;;;;;;23.75;14.32;;;;;;;;;;6214310;23;20032;-48
2021/07/02 01:40:02;;;;;;;27.73;16.55;;;;;;;;;;6214426;23;20079;-48
2021/07/02 01:42:28;;;;;;;30.58;15.82;;;;;;;;;;6214796;23;20083;-49
2021/07/02 01:44:54;;;;;;;21.77;14.05;;;;;;;;;;6214329;23;20376;-48
2021/07/02 01:47:20;;;;;;;26.17;15.90;;;;;;;;;;6214453;23;20059;-48
2021/07/02 01:49:46;;;;;;;28.88;15.98;;;;;;;;;;6214003;23;20013;-48
2021/07/02 01:52:12;;;;;;;27.65;14.80;;;;;;;;;;6214776;23;20004;-49
2021/07/02 01:54:38;;;;;;;28.13;14.75;;;;;;;;;;6214272;23;20027;-48
2021/07/02 01:57:07;;;;;;;19.52;12.38;;;;;;;;;;6214160;23;20004;-50
2021/07/02 01:59:33;;;;;;;21.45;13.02;;;;;;;;;;6212895;23;20005;-49
2021/07/02 02:01:59;;;;;;;32.95;13.55;;;;;;;;;;6214087;23;20684;-48
2021/07/02 02:04:25;;;;;;;21.67;13.25;;;;;;;;;;6214651;23;20074;-48
2021/07/02 02:06:51;;;;;;;22.13;13.18;;;;;;;;;;6214230;23;20051;-48
2021/07/02 02:09:17;;;;;;;26.00;13.38;;;;;;;;;;6214187;23;20015;-48
2021/07/02 02:11:42;;;;;;;26.65;13.07;;;;;;;;;;6213933;23;20005;-49
2021/07/02 02:14:10;;;;;;;20.27;11.70;;;;;;;;;;6214617;23;19996;-48
2021/07/02 02:16:37;;;;;;;25.23;12.35;;;;;;;;;;6214353;23;20360;-48
2021/07/02 02:19:03;;;;;;;19.15;11.85;;;;;;;;;;6213795;23;20000;-48
2021/07/02 02:21:29;;;;;;;16.42;11.85;;;;;;;;;;6214422;23;20391;-48
2021/07/02 02:23:55;;;;;;;26.88;12.68;;;;;;;;;;6214504;23;20001;-48
2021/07/02 02:26:21;;;;;;;20.80;13.05;;;;;;;;;;6214070;23;20380;-49
2021/07/02 02:28:47;;;;;;;20.75;11.05;;;;;;;;;;6214009;23;20008;-48
2021/07/02 02:31:13;;;;;;;17.77;10.50;;;;;;;;;;6213623;23;20005;-48
2021/07/02 02:33:39;;;;;;;18.55;11.40;;;;;;;;;;6214576;23;19997;-48
2021/07/02 02:36:05;;;;;;;17.90;11.77;;;;;;;;;;6214104;23;20000;-49
2021/07/02 02:38:31;;;;;;;17.95;11.32;;;;;;;;;;6214020;23;20444;-48
2021/07/02 02:40:58;;;;;;;18.83;10.73;;;;;;;;;;6213911;23;20079;-48
2021/07/02 02:43:24;;;;;;;18.42;11.18;;;;;;;;;;6214726;23;19996;-48
2021/07/02 02:45:50;;;;;;;16.63;10.75;;;;;;;;;;6214210;23;20008;-48
2021/07/02 02:48:16;;;;;;;16.58;9.77;;;;;;;;;;6214280;23;19996;-48
2021/07/02 02:50:42;;;;;;;27.08;10.63;;;;;;;;;;6213907;23;20021;-48
2021/07/02 02:53:08;;;;;;;24.30;11.55;;;;;;;;;;6214075;23;20464;-49
2021/07/02 02:55:34;;;;;;;19.02;10.57;;;;;;;;;;6214593;23;20011;-48
2021/07/02 02:58:00;;;;;;;14.43;9.90;;;;;;;;;;6214015;23;20065;-47
2021/07/02 03:00:26;;;;;;;19.67;10.85;;;;;;;;;;6214359;23;20337;-48
2021/07/02 03:02:52;;;;;;;19.63;11.05;;;;;;;;;;6215388;23;20000;-47
2021/07/02 03:05:18;;;;;;;13.68;10.35;;;;;;;;;;6216744;23;20325;-48
2021/07/02 03:07:44;;;;;;;15.52;10.52;;;;;;;;;;6215603;23;20004;-47
2021/07/02 03:10:10;;;;;;;14.23;10.02;;;;;;;;;;6215924;23;20007;-48
2021/07/02 03:12:36;;;;;;;12.93;9.35;;;;;;;;;;6215514;23;20020;-47
2021/07/02 03:15:02;;;;;;;14.50;10.50;;;;;;;;;;6216436;23;20019;-47
2021/07/02 03:17:28;;;;;;;15.23;9.38;;;;;;;;;;6215859;23;20360;-47
2021/07/02 03:19:54;;;;;;;13.88;8.93;;;;;;;;;;6215791;23;20051;-48
2021/07/02 03:22:20;;;;;;;16.67;9.82;;;;;;;;;;6216156;23;20015;-47
2021/07/02 03:24:46;;;;;;;14.57;9.48;;;;;;;;;;6215782;23;20007;-48
2021/07/02 03:27:12;;;;;;;19.00;8.63;;;;;;;;;;6216018;23;20001;-48
2021/07/02 03:29:38;;;;;;;12.95;8.52;;;;;;;;;;6215603;23;20302;-48
2021/07/02 03:32:07;;;;;;;13.65;8.57;;;;;;;;;;6216058;23;20000;-48
2021/07/02 03:34:33;;;;;;;14.52;7.70;;;;;;;;;;6215976;23;20001;-49
2021/07/02 03:36:59;;;;;;;15.90;8.50;;;;;;;;;;6216095;23;20008;-53
2021/07/02 03:39:25;;;;;;;13.80;8.80;;;;;;;;;;6215236;23;19998;-48
2021/07/02 03:41:51;;;;;;;11.93;8.20;;;;;;;;;;6215275;23;20004;-50
2021/07/02 03:44:17;;;;;;;10.73;7.28;;;;;;;;;;6215738;23;20336;-49
2021/07/02 03:46:43;;;;;;;12.63;8.93;;;;;;;;;;6215849;23;20079;-48
2021/07/02 03:49:09;;;;;;;13.77;8.52;;;;;;;;;;6214971;23;20099;-48
2021/07/02 03:51:35;;;;;;;13.48;8.43;;;;;;;;;;6215698;23;20083;-48
2021/07/02 03:54:01;;;;;;;11.23;7.72;;;;;;;;;;6215875;23;19997;-47
2021/07/02 03:56:27;;;;;;;16.30;9.15;;;;;;;;;;6215388;23;20008;-48
2021/07/02 03:58:53;;;;;;;16.48;9.00;;;;;;;;;;6213548;23;20012;-48
2021/07/02 04:01:19;;;;;;;12.57;8.23;;;;;;;;;;6215787;23;20000;-48
2021/07/02 04:03:45;;;;;;;18.08;9.07;;;;;;;;;;6215657;23;20008;-47
2021/07/02 04:06:11;;;;;;;16.23;9.13;;;;;;;;;;6215714;23;20003;-48
2021/07/02 04:08:37;;;;;;;18.02;9.43;;;;;;;;;;6214676;23;20012;-49
2021/07/02 04:11:05;;;;;;;22.38;10.63;;;;;;;;;;6215335;23;20078;-50
2021/07/02 04:13:31;;;;;;;18.13;10.40;;;;;;;;;;6215358;23;20039;-48
2021/07/02 04:15:57;;;;;;;14.45;9.65;;;;;;;;;;6215597;23;20297;-50
2021/07/02 04:18:23;;;;;;;17.65;10.88;;;;;;;;;;6215016;23;20004;-48
2021/07/02 04:20:49;;;;;;;19.13;10.52;;;;;;;;;;6215507;23;20004;-48
2021/07/02 04:23:15;;;;;;;18.77;10.77;;;;;;;;;;6215508;23;20000;-48
2021/07/02 04:25:42;;;;;;;17.13;10.13;;;;;;;;;;6215033;23;20004;-48
2021/07/02 04:28:08;;;;;;;17.10;10.40;;;;;;;;;;6214823;23;20051;-48
2021/07/02 04:30:34;;;;;;;16.40;10.55;;;;;;;;;;6215713;23;20417;-48
2021/07/02 04:33:00;;;;;;;16.95;11.00;;;;;;;;;;6215220;23;20042;-48
2021/07/02 04:35:26;;;;;;;17.45;9.98;;;;;;;;;;6215738;23;20023;-47
2021/07/02 04:37:52;;;;;;;16.48;9.88;;;;;;;;;;6188351;23;20001;-48
2021/07/02 04:40:18;;;;;;;21.50;10.60;;;;;;;;;;6214688;23;19996;-48
2021/07/02 04:42:44;;;;;;;14.40;9.85;;;;;;;;;;6215835;23;20031;-48
2021/07/02 04:45:11;;;;;;;17.30;10.23;;;;;;;;;;6215726;23;20028;-47
2021/07/02 04:47:37;;;;;;;16.25;11.13;;;;;;;;;;6215156;23;20358;-48
2021/07/02 04:50:04;;;;;;;18.02;11.05;;;;;;;;;;6214907;23;20036;-49
2021/07/02 04:52:30;;;;;;;19.33;10.73;;;;;;;;;;6215418;23;20429;-50
2021/07/02 04:54:56;;;;;;;18.77;10.77;;;;;;;;;;6214685;23;20000;-48
2021/07/02 04:57:22;;;;;;;15.02;10.15;;;;;;;;;;6215078;23;19996;-49
2021/07/02 04:59:50;;;;;;;19.05;10.32;;;;;;;;;;6215006;23;20043;-51
2021/07/02 05:02:16;;;;;;;19.00;10.40;;;;;;;;;;6215299;23;20321;-48
2021/07/02 05:04:42;;;;;;;14.65;10.10;;;;;;;;;;6188587;23;20016;-50
2021/07/02 05:07:09;;;;;;;20.55;10.90;;;;;;;;;;6215257;23;20325;-49
2021/07/02 05:09:35;;;;;;;18.63;10.63;;;;;;;;;;6214290;23;20004;-48
2021/07/02 05:12:03;;;;;;;21.58;11.45;;;;;;;;;;6214765;23;20368;-48
2021/07/02 05:14:29;;;;;;;16.52;11.07;;;;;;;;;;6214960;23;20378;-47
2021/07/02 05:16:55;;;;;;;13.98;10.05;;;;;;;;;;6215068;23;20018;-49
2021/07/02 05:19:20;;;;;;;16.52;10.02;;;;;;;;;;6214224;23;20006;-49
2021/07/02 05:21:47;;;;;;;18.88;11.80;;;;;;;;;;6215057;23;20031;-49
2021/07/02 05:24:12;;;;;;;18.45;10.52;;;;;;;;;;6215138;23;20481;-48
2021/07/02 05:26:38;;;;;;;14.90;10.55;;;;;;;;;;6214374;23;20004;-48
2021/07/02 05:29:05;;;;;;;15.20;10.55;;;;;;;;;;6214344;23;20011;-47
2021/07/02 05:31:31;;;;;;;18.90;10.48;;;;;;;;;;6214960;23;20001;-48
2021/07/02 05:33:57;;;;;;;23.55;10.38;;;;;;;;;;6213304;23;20001;-49
2021/07/02 05:36:22;;;;;;;15.68;9.82;;;;;;;;;;6212829;23;20001;-49
2021/07/02 05:38:48;;;;;;;15.20;9.95;;;;;;;;;;6212827;23;20008;-48
2021/07/02 05:41:15;;;;;;;14.45;9.02;;;;;;;;;;6213909;23;20001;-48
2021/07/02 05:43:41;;;;;;;25.60;11.48;;;;;;;;;;6214408;23;20477;-48
2021/07/02 05:46:07;;;;;;;21.13;10.73;;;;;;;;;;6214572;23;20052;-48
2021/07/02 05:48:33;;;;;;;19.88;10.48;;;;;;;;;;6214317;23;20001;-48
2021/07/02 05:50:59;;;;;;;17.20;10.30;;;;;;;;;;6214392;23;20043;-48
2021/07/02 05:53:25;;;;;;;21.63;9.85;;;;;;;;;;6214897;23;20008;-48
2021/07/02 05:55:52;;;;;;;14.30;9.88;;;;;;;;;;6214652;23;20001;-51
2021/07/02 05:58:18;;;;;;;16.70;10.35;;;;;;;;;;6213524;23;20404;-48
2021/07/02 06:00:44;;;;;;;13.75;9.18;;;;;;;;;;6213333;23;20420;-49
2021/07/02 06:03:10;;;;;;;15.82;9.35;;;;;;;;;;6214191;23;20000;-48
2021/07/02 06:05:36;;;;;;;20.30;10.93;;;;;;;;;;6214136;23;20398;-51
2021/07/02 06:08:02;;;;;;;18.13;9.77;;;;;;;;;;6214110;23;20108;-49
2021/07/02 06:10:30;;;;;;;20.70;10.65;;;;;;;;;;6213362;23;20066;-51
2021/07/02 06:12:56;;;;;;;20.00;10.98;;;;;;;;;;6214167;23;20036;-50
2021/07/02 06:15:22;;;;;;;21.65;10.95;;;;;;;;;;6214686;23;20340;-49
2021/07/02 06:17:48;;;;;;;20.52;11.13;;;;;;;;;;6213642;23;20018;-49
2021/07/02 06:20:16;;;;;;;17.42;10.10;;;;;;;;;;6214194;23;20007;-51
2021/07/02 06:22:42;;;;;;;17.70;10.52;;;;;;;;;;6214159;23;20009;-49
2021/07/02 06:25:09;;;;;;;15.25;10.50;;;;;;;;;;6214031;23;20008;-49
2021/07/02 06:27:35;;;;;;;18.10;11.40;;;;;;;;;;6212977;23;20009;-49
2021/07/02 06:30:02;;;;;;;28.67;11.70;;;;;;;;;;6214119;23;20012;-48
2021/07/02 06:32:27;;;;;;;18.23;11.07;;;;;;;;;;6214251;23;20123;-50
2021/07/02 06:34:54;;;;;;;20.00;10.15;;;;;;;;;;6213857;23;20361;-49
2021/07/02 06:37:20;;;;;;;15.55;11.10;;;;;;;;;;6214965;23;20000;-49
2021/07/02 06:39:46;;;;;;;18.30;11.48;;;;;;;;;;6215374;23;20419;-49
2021/07/02 06:42:12;;;;;;;16.75;11.63;;;;;;;;;;6215987;23;20050;-49
2021/07/02 06:44:38;;;;;;;22.67;10.02;;;;;;;;;;6216312;23;20005;-48
2021/07/02 06:47:04;;;;;;;20.92;11.45;;;;;;;;;;6215917;23;20004;-51
2021/07/02 06:49:30;;;;;;;17.23;10.38;;;;;;;;;;6215442;23;20031;-48
2021/07/02 06:51:56;;;;;;;18.08;11.70;;;;;;;;;;6215777;23;20004;-49
2021/07/02 06:54:22;;;;;;;19.55;11.23;;;;;;;;;;6216195;23;19997;-49
2021/07/02 06:57:03;;;;;;;15.05;10.65;;;;;;;;;;6215747;23;19997;-49
2021/07/02 06:59:31;;;;;;;17.52;10.93;;;;;;;;;;6215793;23;20026;-50
2021/07/02 07:01:57;;;;;;;21.23;11.02;;;;;;;;;;6215624;23;20008;-49
2021/07/02 07:04:24;;;;;;;15.20;10.85;;;;;;;;;;6215952;23;20054;-52
2021/07/02 07:06:50;;;;;;;17.63;11.35;;;;;;;;;;6215779;23;20066;-49
2021/07/02 07:09:16;;;;;;;16.67;10.45;;;;;;;;;;6214318;23;20012;-48
2021/07/02 07:11:42;;;;;;;21.02;10.57;;;;;;;;;;6214145;23;20000;-48
2021/07/02 07:14:08;;;;;;;16.23;10.05;;;;;;;;;;6214294;23;20336;-48
2021/07/02 07:16:34;;;;;;;13.55;9.93;;;;;;;;;;6214701;23;19997;-48
2021/07/02 07:19:00;;;;;;;17.27;9.75;;;;;;;;;;6214902;23;20112;-49
2021/07/02 07:21:26;;;;;;;17.80;10.73;;;;;;;;;;6214692;23;20005;-48
2021/07/02 07:23:52;;;;;;;14.88;9.68;;;;;;;;;;6214801;23;20004;-48
2021/07/02 07:26:18;;;;;;;16.02;9.32;;;;;;;;;;6215626;23;20475;-49
2021/07/02 07:28:44;;;;;;;14.52;9.40;;;;;;;;;;6213906;23;20042;-50
2021/07/02 07:31:10;;;;;;;14.07;8.55;;;;;;;;;;6214052;23;20059;-49
2021/07/02 07:33:40;;;;;;;12.13;8.00;;;;;;;;;;6215686;23;20001;-48
2021/07/02 07:36:08;;;;;;;14.25;8.27;;;;;;;;;;6214999;23;20007;-49
2021/07/02 07:38:34;;;;;;;17.10;8.57;;;;;;;;;;6214271;23;19992;-48
2021/07/02 07:41:00;;;;;;;12.73;7.85;;;;;;;;;;6215272;23;19997;-50
2021/07/02 07:43:27;;;;;;;16.20;7.95;;;;;;;;;;6215574;23;20210;-50
2021/07/02 07:45:53;;;;;;;11.93;7.20;;;;;;;;;;6215507;23;20004;-48
2021/07/02 07:48:19;;;;;;;11.43;7.80;;;;;;;;;;6214416;23;20487;-48
2021/07/02 07:50:47;;;;;;;16.00;7.70;;;;;;;;;;6215238;23;20039;-49
2021/07/02 07:53:13;;;;;;;15.45;7.45;;;;;;;;;;6215131;23;20009;-48
2021/07/02 07:55:39;;;;;;;17.40;6.90;;;;;;;;;;6215005;23;20496;-48
2021/07/02 07:58:05;;;;;;;10.75;6.90;;;;;;;;;;6188001;23;20016;-47
2021/07/02 08:00:32;;;;;;;10.73;6.20;;;;;;;;;;6214361;23;20004;-47
2021/07/02 08:02:59;;;;;;;13.80;7.00;;;;;;;;;;6214871;23;20075;-47
2021/07/02 08:05:26;;;;;;;15.25;7.13;;;;;;;;;;6215322;23;20092;-49
2021/07/02 08:07:52;;;;;;;10.93;6.72;;;;;;;;;;6214687;23;20653;-49
2021/07/02 08:10:19;;;;;;;12.43;6.82;;;;;;;;;;6215369;23;20003;-47
2021/07/02 08:12:45;;;;;;;17.42;7.70;;;;;;;;;;6214988;23;20001;-49
2021/07/02 08:15:12;;;;;;;9.43;6.95;;;;;;;;;;6214830;23;20046;-47
2021/07/02 08:17:38;;;;;;;10.27;6.85;;;;;;;;;;6214394;23;20000;-48
2021/07/02 08:20:07;;;;;;;13.98;6.57;;;;;;;;;;6215012;23;19997;-49
2021/07/02 08:22:34;;;;;;;14.50;7.65;;;;;;;;;;6215192;23;20075;-49
2021/07/02 08:25:00;;;;;;;13.20;7.80;;;;;;;;;;6214795;23;20329;-48
2021/07/02 08:27:26;;;;;;;11.68;7.03;;;;;;;;;;6214636;23;20001;-50
2021/07/02 08:29:53;;;;;;;14.15;7.43;;;;;;;;;;6214126;23;20000;-50
2021/07/02 08:32:19;;;;;;;13.10;7.85;;;;;;;;;;6214717;23;20302;-48
2021/07/02 08:34:46;;;;;;;12.23;7.20;;;;;;;;;;6214366;23;19997;-48
2021/07/02 08:37:12;;;;;;;11.05;6.35;;;;;;;;;;6215235;23;20028;-48
2021/07/02 08:39:38;;;;;;;10.30;6.80;;;;;;;;;;6187695;23;20008;-48
2021/07/02 08:42:05;;;;;;;9.90;6.15;;;;;;;;;;6214795;23;20005;-50
2021/07/02 08:44:32;;;;;;;12.02;6.65;;;;;;;;;;6215103;23;20034;-48
2021/07/02 08:47:00;;;;;;;11.93;6.78;;;;;;;;;;6215200;23;20012;-52
2021/07/02 08:49:28;;;;;;;17.55;5.63;;;;;;;;;;6213155;23;20020;-48
2021/07/02 08:51:55;;;;;;;7.00;5.00;;;;;;;;;;6213869;23;20049;-47
2021/07/02 08:54:21;;;;;;;8.68;6.70;;;;;;;;;;6214678;23;20429;-47
2021/07/02 08:56:56;;;;;;;8.07;5.85;;;;;;;;;;6214595;23;20059;-47
2021/07/02 08:59:26;;;;;;;11.13;5.95;;;;;;;;;;6213028;23;20032;-49
2021/07/02 09:01:52;;;;;;;10.35;5.85;;;;;;;;;;6214070;23;20039;-48
2021/07/02 09:04:18;;;;;;;8.18;5.18;;;;;;;;;;6213401;23;20051;-48
2021/07/02 09:06:44;;;;;;;10.57;4.60;;;;;;;;;;6213475;23;19996;-48
2021/07/02 09:09:10;;;;;;;14.63;6.03;;;;;;;;;;6213072;23;20001;-47
2021/07/02 09:11:37;;;;;;;7.30;4.90;;;;;;;;;;6214688;23;20028;-47
2021/07/02 09:14:04;;;;;;;7.32;4.43;;;;;;;;;;6214600;23;20001;-47
2021/07/02 09:16:38;;;;;;;9.82;5.50;;;;;;;;;;6214133;23;20007;-47
2021/07/02 09:19:23;;;;;;;10.13;5.20;;;;;;;;;;6213805;23;20075;-53
2021/07/02 09:21:50;;;;;;;9.35;5.68;;;;;;;;;;6213957;23;20603;-52
2021/07/02 09:24:34;;;;;;;11.25;5.15;;;;;;;;;;6214546;23;20021;-47
2021/07/02 09:27:00;;;;;;;8.65;4.85;;;;;;;;;;6214245;23;20005;-50
2021/07/02 09:29:26;;;;;;;7.97;5.00;;;;;;;;;;6213945;23;20001;-48
2021/07/02 09:31:59;;;;;;;7.55;4.70;;;;;;;;;;6214043;23;20088;-52
2021/07/02 09:34:43;;;;;;;9.57;4.75;;;;;;;;;;6214383;23;20005;-47
2021/07/02 09:37:43;;;;;;;7.25;4.43;;;;;;;;;;6214407;23;20070;-47
2021/07/02 09:40:14;;;;;;;7.50;4.40;;;;;;;;;;6187612;23;20294;-47
2021/07/02 09:42:40;;;;;;;7.30;4.10;;;;;;;;;;6214714;23;20439;-48
2021/07/02 09:45:08;;;;;;;5.82;3.88;;;;;;;;;;6215041;23;20352;-48
2021/07/02 09:47:34;;;;;;;7.22;4.05;;;;;;;;;;6213533;23;20008;-47
2021/07/02 09:50:14;;;;;;;10.25;5.28;;;;;;;;;;6182410;23;20083;-47
2021/07/02 09:52:42;;;;;;;7.40;4.45;;;;;;;;;;6184104;23;20004;-47
2021/07/02 09:55:09;;;;;;;5.88;4.03;;;;;;;;;;6184546;23;20401;-47
2021/07/02 09:57:35;;;;;;;6.78;4.85;;;;;;;;;;6183619;23;20051;-47
2021/07/02 10:00:08;;;;;;;6.07;3.85;;;;;;;;;;6183687;23;20002;-48
2021/07/02 10:02:34;;;;;;;5.53;3.60;;;;;;;;;;6182795;23;20376;-49
2021/07/02 10:05:01;;;;;;;7.75;3.83;;;;;;;;;;6184376;23;20009;-47
2021/07/02 10:07:27;;;;;;;7.07;4.00;;;;;;;;;;6184312;23;20004;-48
2021/07/02 10:09:53;;;;;;;7.30;3.50;;;;;;;;;;6183434;23;20012;-47
2021/07/02 10:12:20;;;;;;;7.57;3.88;;;;;;;;;;6183380;23;20028;-47
2021/07/02 10:14:48;;;;;;;5.35;3.75;;;;;;;;;;6183944;23;20004;-47
2021/07/02 10:17:15;;;;;;;6.22;3.80;;;;;;;;;;6184332;23;20421;-47
2021/07/02 10:19:42;;;;;;;6.40;3.78;;;;;;;;;;6183283;23;20081;-47
2021/07/02 10:22:09;;;;;;;5.55;3.85;;;;;;;;;;6184640;23;20016;-47
2021/07/02 10:24:36;;;;;;;4.20;3.10;;;;;;;;;;6183375;23;20005;-47
2021/07/02 10:27:01;;;;;;;6.32;3.58;;;;;;;;;;6183987;23;20024;-47
2021/07/02 10:29:28;;;;;;;4.93;3.63;;;;;;;;;;6181492;23;20012;-51
2021/07/02 10:31:54;;;;;;;6.10;2.95;;;;;;;;;;6183704;23;20001;-51
2021/07/02 10:34:20;;;;;;;4.55;2.97;;;;;;;;;;6183635;23;20001;-48
2021/07/02 10:36:47;;;;;;;5.53;3.13;;;;;;;;;;6183540;23;20333;-47
2021/07/02 10:39:29;;;;;;;5.63;3.25;;;;;;;;;;6183753;23;20063;-49
2021/07/02 10:42:06;;;;;;;5.20;3.10;;;;;;;;;;6183363;23;20001;-48
2021/07/02 10:44:32;;;;;;;7.47;3.13;;;;;;;;;;6180630;23;20385;-48
2021/07/02 10:46:58;;;;;;;5.50;3.30;;;;;;;;;;6182515;23;20012;-48
2021/07/02 10:49:35;;;;;;;8.13;3.22;;;;;;;;;;6195798;23;20325;-48
2021/07/02 10:52:01;;;;;;;4.68;2.92;;;;;;;;;;6212815;23;20005;-48
2021/07/02 10:54:28;;;;;;;4.90;3.25;;;;;;;;;;6213993;23;20071;-47
2021/07/02 10:56:58;;;;;;;5.80;3.30;;;;;;;;;;6213743;23;20008;-48
2021/07/02 10:59:37;;;;;;;8.52;3.08;;;;;;;;;;6213034;23;20135;-51
2021/07/02 11:02:09;;;;;;;4.18;3.03;;;;;;;;;;6213024;23;20004;-47
2021/07/02 11:04:42;;;;;;;6.47;3.67;;;;;;;;;;6214183;23;20092;-47
2021/07/02 11:07:08;;;;;;;;;;;;;;;;;;6214707;23;20000;-47
2021/07/02 11:09:57;;;;;;;6.63;3.53;;;;;;;;;;6213115;23;19910;-48
2021/07/02 11:12:27;;;;;;;12.98;3.67;;;;;;;;;;6194924;23;20005;-47
2021/07/02 11:14:57;;;;;;;7.80;3.72;;;;;;;;;;6213265;23;20004;-48
2021/07/02 11:17:24;;;;;;;6.10;3.65;;;;;;;;;;6213046;23;19996;-47
2021/07/02 11:20:06;;;;;;;14.85;3.95;;;;;;;;;;6213747;23;20310;-47
2021/07/02 11:22:35;;;;;;;6.47;3.50;;;;;;;;;;6213832;23;20090;-47
2021/07/02 11:25:08;;;;;;;6.75;3.58;;;;;;;;;;6215555;23;20001;-47
2021/07/02 11:27:42;;;;;;;11.07;3.75;;;;;;;;;;6188021;23;20440;-49
2021/07/02 11:30:09;;;;;;;;;;;;;;;;;;6216020;23;20012;-48
2021/07/02 11:32:35;;;;;;;6.05;3.35;;;;;;;;;;6214464;23;19904;-48
2021/07/02 11:35:18;;;;;;;5.50;3.90;;;;;;;;;;6215521;23;20039;-47
2021/07/02 11:40:30;;;;;;;6.40;3.72;;;;;;;;;;6215000;23;20372;-49
2021/07/02 11:42:56;;;;;;;12.30;3.78;;;;;;;;;;6215782;23;20099;-48
2021/07/02 11:45:41;;;;;;;7.13;3.80;;;;;;;;;;6215418;23;20305;-49
2021/07/02 11:48:07;;;;;;;6.20;3.53;;;;;;;;;;6215057;23;20036;-48
2021/07/02 11:50:40;;;;;;;6.20;4.07;;;;;;;;;;6214793;23;20095;-48
2021/07/02 11:53:06;;;;;;;6.38;3.38;;;;;;;;;;6214904;23;20026;-48
2021/07/02 11:55:32;;;;;;;4.90;3.13;;;;;;;;;;6215601;23;20000;-47
2021/07/02 11:58:15;;;;;;;3.55;3.00;;;;;;;;;;6214539;23;20008;-49
2021/07/02 12:00:40;;;;;;;7.28;3.55;;;;;;;;;;6215438;23;19997;-47
2021/07/02 12:03:08;;;;;;;7.57;3.60;;;;;;;;;;6187904;23;20008;-48
2021/07/02 12:05:33;;;;;;;8.05;3.13;;;;;;;;;;6215206;23;20310;-48
2021/07/02 12:07:59;;;;;;;5.97;3.33;;;;;;;;;;6215138;23;20015;-47
2021/07/02 12:10:25;;;;;;;6.57;3.40;;;;;;;;;;6214987;23;20008;-48
2021/07/02 12:13:04;;;;;;;7.35;3.20;;;;;;;;;;6215151;23;20000;-47
2021/07/02 12:15:31;;;;;;;6.88;3.47;;;;;;;;;;6215082;23;20075;-47
2021/07/02 12:18:04;;;;;;;12.10;3.28;;;;;;;;;;6214904;23;20013;-48
2021/07/02 12:20:30;;;;;;;6.47;2.92;;;;;;;;;;6215634;23;20491;-48
2021/07/02 12:23:03;;;;;;;5.03;3.30;;;;;;;;;;6214919;23;20035;-48
2021/07/02 12:25:30;;;;;;;17.05;3.58;;;;;;;;;;6215036;23;20001;-47
2021/07/02 12:27:57;;;;;;;4.00;2.80;;;;;;;;;;6214803;23;20004;-49
2021/07/02 12:30:23;;;;;;;5.32;3.10;;;;;;;;;;6214668;23;20001;-48
2021/07/02 12:32:52;;;;;;;4.35;2.72;;;;;;;;;;6214439;23;20004;-48
2021/07/02 12:35:18;;;;;;;5.93;2.75;;;;;;;;;;6213820;23;20471;-47
2021/07/02 12:37:44;;;;;;;4.60;3.30;;;;;;;;;;6214328;23;20004;-47
2021/07/02 12:40:12;;;;;;;4.20;2.67;;;;;;;;;;6215004;23;20004;-48
2021/07/02 12:42:42;;;;;;;6.50;3.38;;;;;;;;;;6214949;23;20317;-48
2021/07/02 12:45:10;;;;;;;5.20;3.05;;;;;;;;;;6215304;23;20009;-47
2021/07/02 12:47:37;;;;;;;5.43;2.90;;;;;;;;;;6213890;23;20007;-48
2021/07/02 12:50:13;;;;;;;4.25;3.38;;;;;;;;;;6214268;23;20035;-48
2021/07/02 12:55:06;;;;;;;5.25;3.30;;;;;;;;;;6214661;23;20009;-48
2021/07/02 12:57:36;;;;;;;7.07;3.13;;;;;;;;;;6214464;23;20011;-51
2021/07/02 13:00:09;;;;;;;7.47;4.15;;;;;;;;;;6215398;23;20000;-48
2021/07/02 13:02:37;;;;;;;15.63;3.28;;;;;;;;;;6213550;23;20001;-47
2021/07/02 13:05:05;;;;;;;5.88;3.08;;;;;;;;;;6214168;23;20027;-49
2021/07/02 13:07:51;;;;;;;14.65;3.75;;;;;;;;;;6214495;23;20009;-48
2021/07/02 13:10:18;;;;;;;5.65;3.38;;;;;;;;;;6188301;23;20015;-50
2021/07/02 13:13:00;;;;;;;4.90;3.50;;;;;;;;;;6214347;23;20004;-52
2021/07/02 13:15:26;;;;;;;6.60;3.30;;;;;;;;;;6214028;23;19996;-48
2021/07/02 13:17:52;;;;;;;6.78;3.38;;;;;;;;;;6214053;23;20074;-48
2021/07/02 13:20:18;;;;;;;11.95;3.30;;;;;;;;;;6214135;23;20001;-48
2021/07/02 13:22:59;;;;;;;4.68;3.13;;;;;;;;;;6214847;23;20012;-48
2021/07/02 13:25:25;;;;;;;4.72;2.90;;;;;;;;;;6214188;23;20004;-49
2021/07/02 13:27:59;;;;;;;5.07;2.83;;;;;;;;;;6213504;23;20088;-51
2021/07/02 13:30:29;;;;;;;5.38;3.10;;;;;;;;;;6214671;23;20417;-52
2021/07/02 13:33:08;;;;;;;4.38;3.13;;;;;;;;;;6214031;23;20738;-49
2021/07/02 13:35:34;;;;;;;6.35;3.15;;;;;;;;;;6214529;23;19996;-47
2021/07/02 13:38:06;;;;;;;9.30;3.47;;;;;;;;;;6213106;23;20000;-48
2021/07/02 13:40:33;;;;;;;11.85;3.90;;;;;;;;;;6214425;23;19997;-47
2021/07/02 13:43:09;;;;;;;5.78;3.60;;;;;;;;;;6214222;23;20004;-52
2021/07/02 13:45:36;;;;;;;6.90;3.42;;;;;;;;;;6214874;23;20008;-48
2021/07/02 13:48:06;;;;;;;4.45;3.08;;;;;;;;;;6213514;23;20004;-49
2021/07/02 13:50:32;;;;;;;8.65;4.10;;;;;;;;;;6213606;23;20788;-49
2021/07/02 13:52:58;;;;;;;5.43;3.53;;;;;;;;;;6214002;23;20011;-48
2021/07/02 13:55:24;;;;;;;4.63;3.38;;;;;;;;;;6213789;23;20413;-50
2021/07/02 13:57:50;;;;;;;5.78;3.30;;;;;;;;;;6213807;23;20000;-48
2021/07/02 14:00:16;;;;;;;5.30;3.60;;;;;;;;;;6214785;23;20000;-47
2021/07/02 14:02:42;;;;;;;4.60;3.28;;;;;;;;;;6213429;23;20015;-46
2021/07/02 14:05:08;;;;;;;3.95;3.08;;;;;;;;;;6214007;23;20013;-46
2021/07/02 14:07:34;;;;;;;4.65;3.30;;;;;;;;;;6214263;23;20035;-46
2021/07/02 14:10:00;;;;;;;5.90;4.00;;;;;;;;;;6214030;23;20325;-46
2021/07/02 14:12:26;;;;;;;6.00;3.17;;;;;;;;;;6213401;23;20016;-49
2021/07/02 14:14:52;;;;;;;6.22;3.90;;;;;;;;;;6214054;23;20000;-46
2021/07/02 14:17:18;;;;;;;9.05;3.47;;;;;;;;;;6213983;23;20425;-46
2021/07/02 14:19:45;;;;;;;4.05;3.13;;;;;;;;;;6213530;23;20004;-46
2021/07/02 14:22:14;;;;;;;5.32;3.10;;;;;;;;;;6214195;23;20028;-46
2021/07/02 14:24:40;;;;;;;6.72;3.80;;;;;;;;;;6214053;23;19997;-48
2021/07/02 14:27:06;;;;;;;8.05;3.47;;;;;;;;;;6213326;23;20120;-51
2021/07/02 14:29:32;;;;;;;6.50;3.80;;;;;;;;;;6213717;23;20079;-46
2021/07/02 14:31:58;;;;;;;7.65;3.85;;;;;;;;;;6213852;23;20657;-45
2021/07/02 14:34:25;;;;;;;7.50;4.00;;;;;;;;;;6187990;23;20007;-51
2021/07/02 14:36:51;;;;;;;5.80;4.13;;;;;;;;;;6214187;23;20123;-51
2021/07/02 14:39:17;;;;;;;5.60;4.05;;;;;;;;;;6213757;23;20005;-46